Padroni, Colorado
Current Conditions -  °F | °C
As of 2:50 PM on Thursday 27 Nov 2014 (Local Time) from KSTK Reporting Station
Clear Clear  
Wind Chill: 39°   Ceiling: Unl
Heat Index: 43°   Visibility: 10mi
Dew Point: 36°   Wind: 6mph
Humidity: 76%   Direction: 200°SSW
Pressure: 30.06"   Gusts: NA
Location:  40.78°N, 103.17°W
Report Text: KSTK 272150Z AUTO 20005KT 10SM CLR 06/02 A3006 RMK AO2
Loading
Personal Weather Stations






























Interactive Weather Map New forecast layout! Learn more

10-Day Weather Forecast

Advertisements
Track Severe Weather on mobile